M I D A S
Marine Information and Data Acquisition System
Tripno 305 of the Zeeleeuw from 2002-08-13 06:48:00 to 2002-08-13 13:10:00
Back to CruiseResearch ActivitiesStationsMapUnderway DataData graphs

EquipmentUnitsComment
TimeDGPSUTC
LatitudeDGPSDM.mWGS84
LongitudeDGPSDM.mWGS84
HeadingGyrodeg 
SOGDGPSknotsSpeed over ground
COGDGPSdegCourse over ground
DepthEcho soundermeters200 kHz
Missing or incorrect values are displayed as -999
Navigation data collected by the RV Zeeleeuw from 2002-08-13 06:48:00 to 2002-08-13 13:10:00
Time Latitude Longitude Heading SOG COG Depth
2002-08-13 06:49:06 51°13.673 2°55.911 338.5 2.7 288.5 -999
2002-08-13 06:50:07 51°13.687 2°55.828 332.3 3.2 283.3 -999
2002-08-13 06:51:07 51°13.694 2°55.749 320.3 2.7 273.2 -999
2002-08-13 06:52:04 51°13.693 2°55.713 298 0.5 271.1 13.3
2002-08-13 06:53:06 51°13.713 2°55.721 238.8 2.7 5.6 12.2
2002-08-13 06:54:06 51°13.794 2°55.665 206.2 7 332.6 11.1
2002-08-13 06:55:06 51°13.912 2°55.574 208.8 8.4 336.5 11.2
2002-08-13 06:56:05 51°14.04 2°55.479 208.3 8.6 333.8 11.2
2002-08-13 06:57:06 51°14.177 2°55.379 207 9.4 332.9 11.1
2002-08-13 06:58:06 51°14.304 2°55.2 182.8 10.7 308.7 10.8
2002-08-13 06:59:05 51°14.42 2°54.986 193 10.8 317 10.4
2002-08-13 07:00:06 51°14.545 2°54.827 195.8 8.7 319.3 10.2
2002-08-13 07:01:06 51°14.659 2°54.674 199.5 10 323.3 10
2002-08-13 07:02:06 51°14.813 2°54.474 195.2 13.4 319.2 9.8
2002-08-13 07:03:05 51°14.99 2°54.252 197 13.7 322.8 8.8
2002-08-13 07:04:06 51°15.174 2°54.019 197 14.1 321.6 9.4
2002-08-13 07:05:06 51°15.366 2°53.802 202.8 14.2 327.2 10.1
2002-08-13 07:06:06 51°15.572 2°53.618 208.2 14.2 332.3 11
2002-08-13 07:07:04 51°15.771 2°53.448 208.2 14.1 332.8 11.8
2002-08-13 07:08:06 51°15.986 2°53.266 207.8 14.2 331.8 12.2
2002-08-13 07:09:06 51°16.196 2°53.089 207.7 14.3 332.5 12.6
2002-08-13 07:10:06 51°16.407 2°52.914 207.2 14.2 331.7 12.4
2002-08-13 07:11:06 51°16.615 2°52.74 207.5 14.1 332.4 11.6
2002-08-13 07:12:04 51°16.815 2°52.571 208.3 14 332.4 9.8
2002-08-13 07:13:06 51°17.033 2°52.399 208.5 14.1 334 10
2002-08-13 07:14:06 51°17.247 2°52.233 208.8 14.3 334.1 10.7
2002-08-13 07:15:04 51°17.452 2°52.068 209 14.3 333.9 10.5
2002-08-13 07:16:05 51°17.663 2°51.878 202.8 14.3 327.9 10.6
2002-08-13 07:17:05 51°17.852 2°51.647 194.8 14.3 319.9 10.3
2002-08-13 07:18:05 51°18.029 2°51.389 191.7 14.5 317.2 11.4
2002-08-13 07:19:06 51°18.207 2°51.117 188.3 14.5 313.8 12.7
2002-08-13 07:20:06 51°18.366 2°50.827 184.2 14.5 309.7 13.8
2002-08-13 07:21:06 51°18.519 2°50.531 184.5 14.4 309.7 14.4
2002-08-13 07:22:05 51°18.669 2°50.239 184 14.4 309.6 14.2
2002-08-13 07:23:06 51°18.825 2°49.937 184.5 14.5 309.9 12.4
2002-08-13 07:24:06 51°18.979 2°49.643 184 14.5 309.5 10.8
2002-08-13 07:25:06 51°19.134 2°49.343 184.7 14.6 309.8 12.7
2002-08-13 07:26:05 51°19.284 2°49.048 183.2 14.6 308 14.4
2002-08-13 07:27:06 51°19.436 2°48.737 182.8 14.6 307.9 17.2
2002-08-13 07:28:06 51°19.585 2°48.435 183.5 14.5 308.5 19.9
2002-08-13 07:29:06 51°19.73 2°48.146 183.8 12.5 309.2 21.9
2002-08-13 07:30:06 51°19.849 2°47.905 305.8 10 302.7 22.1
2002-08-13 07:31:06 51°19.91 2°47.733 302 6 298.8 22.1
2002-08-13 07:32:07 51°19.92 2°47.697 305   114.5 -999
2002-08-13 07:33:06 51°19.92 2°47.697 321.5 0.1 43.1 22
2002-08-13 07:34:06 51°19.921 2°47.699 333.2 0.1 64.8 22
2002-08-13 07:35:06 51°19.922 2°47.701 344.3 0.1 53 22
2002-08-13 07:36:06 51°19.923 2°47.703 356 0.1 53.6 22
2002-08-13 07:37:04 51°19.925 2°47.706 6.2 0.2 58 21.9
2002-08-13 07:38:05 51°19.927 2°47.71 10.8 0.2 48.2 22
2002-08-13 07:39:06 51°19.929 2°47.714 10.5 0.2 51.9 22
2002-08-13 07:40:05 51°19.931 2°47.716 6.3 0.2 37.3 21.9
2002-08-13 07:41:06 51°19.934 2°47.718 1.8 0.1 14.5 21.9
2002-08-13 07:42:05 51°19.936 2°47.718 358.7 0.2 14.1 21.9
2002-08-13 07:43:06 51°19.938 2°47.718 356.3 0.1 350.4 21.9
2002-08-13 07:44:06 51°19.941 2°47.717 354.2 0.1 346.2 21.8
2002-08-13 07:45:06 51°19.942 2°47.715 353.2 0.1 332.8 21.8
2002-08-13 07:46:06 51°19.944 2°47.714 353.2 0.1 353.5 21.9
2002-08-13 07:47:06 51°19.946 2°47.712 353.8 0.1 346.9 21.9
2002-08-13 07:48:06 51°19.947 2°47.711 355.5 0.1 323.1 21.8
2002-08-13 07:49:06 51°19.95 2°47.71 356.2 0.1 346.7 21.7
2002-08-13 07:50:05 51°19.952 2°47.708 356.2 0.2 328.3 21.7
2002-08-13 07:51:06 51°19.954 2°47.705 354.8 0.2 317.9 21.8
2002-08-13 07:52:05 51°19.957 2°47.702 355.7 0.2 316 21.8
2002-08-13 07:53:06 51°19.96 2°47.698   0.4 338.5 21.8
2002-08-13 07:54:06 51°19.985 2°47.709 40.8 2.9 34.7 21.6
2002-08-13 07:55:06 51°19.999 2°47.769 90.2 2.2 89.1 21.7
2002-08-13 07:56:06 51°19.985 2°47.817 125.3 2 131.4 21.8
2002-08-13 07:57:06 51°19.957 2°47.841 158.8 2 167.4 21.8
2002-08-13 07:58:06 51°19.925 2°47.84 184.7 2 191.8 21.8
2002-08-13 07:59:06 51°19.892 2°47.825 190.3 2.1 197.2 21.7
2002-08-13 08:00:06 51°19.856 2°47.806 193.7 2.4 197.7 21.8
2002-08-13 08:01:06 51°19.822 2°47.786 201.3 2.1 204.2 21.8
2002-08-13 08:02:06 51°19.792 2°47.758 211.8 2 213.8 21.7
2002-08-13 08:03:06 51°19.767 2°47.727 220 1.8 219.2 21.7
2002-08-13 08:04:06 51°19.745 2°47.692 230.2 2.3 229.5 21.7
2002-08-13 08:05:06 51°19.762 2°47.51 303.2 11.3 295.6 21.3
2002-08-13 08:06:06 51°19.826 2°47.163 280.3 14.4 276.8 20.3
2002-08-13 08:07:06 51°19.802 2°46.784 252.7 14.5 250.4 18.9
2002-08-13 08:08:06 51°19.694 2°46.435 242.2 14.7 241.6 17.6
2002-08-13 08:09:06 51°19.584 2°46.085 245.7 14.8 245.6 15.4
2002-08-13 08:10:06 51°19.485 2°45.726 245.7 14.8 246.2 12.7
2002-08-13 08:11:06 51°19.383 2°45.367 244.7 14.8 245.9 10.5
2002-08-13 08:12:06 51°19.284 2°45.006 245.5 14.9 246.8 11.8
2002-08-13 08:13:06 51°19.182 2°44.639 244 15.1 245.1 17.3
2002-08-13 08:14:06 51°19.07 2°44.286 242.7 14.2 243.7 20.6
2002-08-13 08:15:06 51°18.99 2°44.08 233.3 6.6 238.1 21.3
2002-08-13 08:16:06 51°18.976 2°43.944 290.3 4.9 284.9 21.5
2002-08-13 08:17:06 51°18.992 2°43.88 331.8 0.6 239 21.7
2002-08-13 08:18:06 51°18.986 2°43.864 352.2 0.7 244 21.4
2002-08-13 08:19:06 51°18.982 2°43.847 357.7 0.6 255.9 21.9
2002-08-13 08:20:06 51°18.981 2°43.832 1.2 0.6 266.6 21.9
2002-08-13 08:21:06 51°18.982 2°43.817 2.2 0.5 277.1 21.9
2002-08-13 08:22:06 51°18.984 2°43.803 3.8 0.5 282.4 21.9
2002-08-13 08:23:06 51°18.986 2°43.789 1.5 0.6 291.1 21.9
2002-08-13 08:24:06 51°18.99 2°43.775 359 0.6 293.2 21.9
2002-08-13 08:25:06 51°18.994 2°43.76 356.5 0.6 294.4 21.9
2002-08-13 08:26:06 51°18.999 2°43.744 352.7 0.7 298.1 21.9
2002-08-13 08:27:06 51°19.003 2°43.728 350 0.7 298.4 21.9
2002-08-13 08:28:06 51°19.008 2°43.711 346.3 0.7 294.9 21.9
2002-08-13 08:29:06 51°19.013 2°43.694 343 0.7 295.2 21.9
2002-08-13 08:30:06 51°19.018 2°43.677 339.5 0.7 292.4 21.9
2002-08-13 08:31:06 51°19.023 2°43.658 334.5 0.7 292.3 21.9
2002-08-13 08:32:06 51°19.028 2°43.641 332 0.7 294.2 22
2002-08-13 08:33:06 51°19.073 2°43.628 33.5 4.1 19.6 22.2
2002-08-13 08:34:06 51°19.074 2°43.719 132 4.5 138.9 21.9
2002-08-13 08:35:06 51°18.98 2°43.749 153.2 6.5 160.4 21.8
2002-08-13 08:36:06 51°18.913 2°43.838 109.5 3.6 117.6 21.5
2002-08-13 08:37:06 51°18.911 2°43.87 67.7 0.5 42.4 21.4
2002-08-13 08:38:06 51°18.919 2°43.871 54.8 0.5 332.3 21.3
2002-08-13 08:39:06 51°18.926 2°43.863 51.3 0.5 328 21.5
2002-08-13 08:40:06 51°18.934 2°43.855 43 0.6 326.3 21.5
2002-08-13 08:41:06 51°18.943 2°43.844 34.2 0.7 321.1 21.6
2002-08-13 08:42:06 51°18.953 2°43.83 25 0.8 316.1 21.6
2002-08-13 08:43:06 51°18.962 2°43.813 16.7 0.9 308 21.7
2002-08-13 08:44:06 51°18.974 2°43.794 11.7 1.2 325.3 21.6
2002-08-13 08:45:06 51°18.996 2°43.779 23.2 1.5 346 21.6
2002-08-13 08:46:06 51°19.021 2°43.779 44.3 1.5 12.1 21.6
2002-08-13 08:47:06 51°19.038 2°43.798 69.7 1.2 50.6 21.5
2002-08-13 08:48:06 51°19.044 2°43.826 88 1.2 85.1 21.5
2002-08-13 08:49:06 51°19.038 2°43.861 107.8 1.5 119 21.4
2002-08-13 08:50:06 51°19.019 2°43.891 127.7 1.8 146.1 21.4
2002-08-13 08:51:06 51°18.992 2°43.91 139.2 1.7 164.2 21.3
2002-08-13 08:52:06 51°18.965 2°43.916 148.8 1.6 177.2 21.2
2002-08-13 08:53:06 51°18.936 2°43.92 144.5 2.2 163.8 21.3
2002-08-13 08:54:06 51°18.952 2°44.035 38.3 7.8 29.3 20.9
2002-08-13 08:55:06 51°19.063 2°43.885 288.8 11 284 21.2
2002-08-13 08:56:06 51°18.958 2°43.676 190.2 11 194.2 21.7
2002-08-13 08:57:06 51°18.776 2°43.733 153 11.5 157.3 21.4
2002-08-13 08:58:06 51°18.596 2°43.851 152.2 11.8 156.1 19.9
2002-08-13 08:59:06 51°18.405 2°43.921 163.2 11.8 168.4 11.1
2002-08-13 09:00:06 51°18.225 2°44.004 153.5 10.6 160.2 10.9
2002-08-13 09:01:06 51°18.06 2°44.075 154.2 10 160.4 13.2
2002-08-13 09:02:06 51°17.904 2°44.171 162.5 10.3 168.5 15.7
2002-08-13 09:03:06 51°17.727 2°44.187 170.5 10.3 176.5 16.3
2002-08-13 09:04:06 51°17.612 2°44.24 136.5 5.4 149.8 15.9
2002-08-13 09:05:06 51°17.571 2°44.309 95.3 2.4 115.4 16
2002-08-13 09:06:06 51°17.563 2°44.338 75.7 0.5 137 16
2002-08-13 09:07:06 51°17.56 2°44.346 62.7 0.2 116.9 16
2002-08-13 09:08:06 51°17.559 2°44.35 55.5 0.2 77.7 15.8
2002-08-13 09:09:06 51°17.561 2°44.355 57 0.2 67 15.9
2002-08-13 09:10:06 51°17.562 2°44.363 67.3 0.4 107 15.7
2002-08-13 09:11:06 51°17.556 2°44.375 83.8 0.7 135.1 16
2002-08-13 09:12:06 51°17.547 2°44.386 83.2 0.6 155.4 16
2002-08-13 09:13:06 51°17.535 2°44.387 89.8 0.8 159.5 15.6
2002-08-13 09:14:06 51°17.523 2°44.397 87.7 0.8 155 16
2002-08-13 09:15:06 51°17.513 2°44.405 75.2 0.6 155.5 15.9
2002-08-13 09:16:06 51°17.506 2°44.411 65.5 0.4 143.4 15.9
2002-08-13 09:17:06 51°17.504 2°44.416 57.3 0.2 113.4 15.9
2002-08-13 09:18:06 51°17.504 2°44.42 47.5 0.1 21.8 15.9
2002-08-13 09:19:06 51°17.508 2°44.418 38.3 0.3 338.1 16
2002-08-13 09:20:06 51°17.512 2°44.413 32 0.4 320.4 16
2002-08-13 09:21:06 51°17.518 2°44.405 26.5 0.6 314.4 15.7
2002-08-13 09:22:06 51°17.524 2°44.391 20.3 0.7 306.4 16
2002-08-13 09:23:06 51°17.53 2°44.373 13.8 0.8 298.6 15.9
2002-08-13 09:24:06 51°17.536 2°44.352 11.2 0.9 293.6 16
2002-08-13 09:25:06 51°17.543 2°44.334 23.2 0.7 306.4 15.9
2002-08-13 09:26:06 51°17.549 2°44.326 41.3 0.3 345.9 15.9
2002-08-13 09:27:06 51°17.552 2°44.33 53.7 0.4 60.7 16.1
2002-08-13 09:28:06 51°17.555 2°44.34 56 0.5 71 16
2002-08-13 09:29:06 51°17.552 2°44.359 82.3 1.1 122.8 15.7
2002-08-13 09:30:06 51°17.534 2°44.386 105.7 1.8 144 15.6
2002-08-13 09:31:06 51°17.502 2°44.409 128.8 2.4 163.4 16
2002-08-13 09:32:06 51°17.458 2°44.418 149.8 2.8 178.1 15.7
2002-08-13 09:33:06 51°17.411 2°44.412 166 2.8 189 15.4
2002-08-13 09:34:06 51°17.363 2°44.394 179 3 196.2 15
2002-08-13 09:35:06 51°17.298 2°44.35 209.2 7.3 211.7 14.8
2002-08-13 09:36:06 51°17.262 2°44.097 281.3 11.6 274 14.6
2002-08-13 09:37:06 51°17.305 2°43.772 289.7 13.6 282.7 13.6
2002-08-13 09:38:06 51°17.387 2°43.428 302 13.9 294.5 11.4
2002-08-13 09:39:06 51°17.48 2°43.088 302.2 14.1 296.1 9.9
2002-08-13 09:40:06 51°17.559 2°42.737 277.2 14.5 273.1 17.6
2002-08-13 09:41:06 51°17.467 2°42.393 236.3 14.4 236.3 21.1
2002-08-13 09:42:06 51°17.34 2°42.067 241.5 14.5 240.8 21.8
2002-08-13 09:43:06 51°17.243 2°41.754 244.2 10.4 243 22.2
2002-08-13 09:44:06 51°17.191 2°41.568 273 6 264 22.7
2002-08-13 09:45:06 51°17.212 2°41.446 316.2 4.3 297.8 22.7
2002-08-13 09:46:06 51°17.253 2°41.375 357.3 3 332.1 22.5
2002-08-13 09:47:06 51°17.287 2°41.359 19.5 1.8 347.4 22.5
2002-08-13 09:48:06 51°17.307 2°41.359 45.2 0.9 15.8 22.4
2002-08-13 09:49:06 51°17.318 2°41.37 50.7 0.7 32.3 22.7
2002-08-13 09:50:06 51°17.323 2°41.369 43.5 0.8 239.6 22.5
2002-08-13 09:51:06 51°17.314 2°41.349 40.3 1.2 229.7 22.6
2002-08-13 09:52:06 51°17.312 2°41.337 36.7 0.3 312.7 22.7
2002-08-13 09:53:07 51°17.319 2°41.331 36.8 0.5 345.9 22.6
2002-08-13 09:54:06 51°17.324 2°41.336 64.3 0.4 70.6 22.6
2002-08-13 09:55:06 51°17.324 2°41.347 65.8 0.4 91.5 22.7
2002-08-13 09:56:06 51°17.319 2°41.359 84.8 0.7 132.2 22.5
2002-08-13 09:57:06 51°17.305 2°41.372 107.2 1.2 158.7 22.5
2002-08-13 09:58:06 51°17.282 2°41.379 124.3 1.4 174.3 22.6
2002-08-13 09:59:06 51°17.258 2°41.379 133 1.5 183.9 22.7
2002-08-13 10:00:06 51°17.233 2°41.374 139 1.5 189.2 22.6
2002-08-13 10:01:06 51°17.207 2°41.369 133.2 1.6 184.3 22.6
2002-08-13 10:02:06 51°17.183 2°41.38 97.3 1.4 135.2 22.8
2002-08-13 10:03:06 51°17.188 2°41.41 40.7 1.5 27.4 22.7
2002-08-13 10:04:06 51°17.224 2°41.398 3.3 2.9 341.1 22.6
2002-08-13 10:05:06 51°17.276 2°41.367 354.2 3.5 333.2 22.7
2002-08-13 10:06:06 51°17.316 2°41.315 341.3 2.8 312.7 22.7
2002-08-13 10:07:06 51°17.338 2°41.266 343.7 2 302.1 22.6
2002-08-13 10:08:06 51°17.349 2°41.224 338.5 1.6 283 22.5
2002-08-13 10:09:06 51°17.344 2°41.192 335.8 1.3 233.1 22.5
2002-08-13 10:10:06 51°17.325 2°41.17 345.5 1.6 205.9 22.4
2002-08-13 10:11:06 51°17.295 2°41.149 3 2.2 204.8 22.4
2002-08-13 10:12:06 51°17.267 2°41.122 22.8 1.5 222.5 22.5
2002-08-13 10:13:06 51°17.256 2°41.103 50.5 0.5 223.1 22.4
2002-08-13 10:14:06 51°17.248 2°41.107 83.2 0.8 148.1 22.3
2002-08-13 10:15:06 51°17.232 2°41.133 95.8 1.7 129.8 22.4
2002-08-13 10:16:06 51°17.218 2°41.18 78.8 2.4 95.6 22.6
2002-08-13 10:17:06 51°17.223 2°41.236 64.5 1.9 74.4 22.7
2002-08-13 10:18:06 51°17.234 2°41.277 58.7 1.5 64.5 22.5
2002-08-13 10:19:06 51°17.244 2°41.308 55 1.1 59.8 22.5
2002-08-13 10:20:06 51°17.255 2°41.323 41.8 0.7 23.7 22.6
2002-08-13 10:21:06 51°17.265 2°41.325 32 0.6 351.1 22.7
2002-08-13 10:22:06 51°17.273 2°41.317 25.3 0.6 316.7 22.8
2002-08-13 10:23:07 51°17.279 2°41.301 18.2 0.7 293.8 22.9
2002-08-13 10:24:06 51°17.282 2°41.28 11.3 0.9 278.1 22.7
2002-08-13 10:25:06 51°17.283 2°41.256 4.7 1 269.1 22.6
2002-08-13 10:26:06 51°17.281 2°41.228   1.1 261.8 22.7
2002-08-13 10:27:06 51°17.277 2°41.199 0.2 1.1 256.4 22.8
2002-08-13 10:28:06 51°17.272 2°41.171 359.3 1.1 251.2 22.7
2002-08-13 10:29:06 51°17.284 2°41.155 38.8 1.7 23.7 22.7
2002-08-13 10:30:06 51°17.279 2°41.229 94.7 4.1 108.4 22.6
2002-08-13 10:31:06 51°17.259 2°41.289 82 1.3 131 22.8
2002-08-13 10:32:06 51°17.249 2°41.306 66 0.6 134.8 22.8
2002-08-13 10:33:06 51°17.244 2°41.311 55.8 0.3 171.6 22.8
2002-08-13 10:34:07 51°17.24 2°41.308 45.8 0.4 223.5 22.7
2002-08-13 10:35:06 51°17.238 2°41.301 35 0.3 270.5 22.8
2002-08-13 10:36:06 51°17.24 2°41.289 22.8 0.6 295.9 22.7
2002-08-13 10:37:06 51°17.245 2°41.271 12.5 0.9 296.2 22.8
2002-08-13 10:38:06 51°17.253 2°41.247 3.7 1.1 293.8 22.9
2002-08-13 10:39:06 51°17.261 2°41.218 2.8 1.2 291.8 22.9
2002-08-13 10:40:06 51°17.269 2°41.187 359 1.3 293.7 22.8
2002-08-13 10:41:06 51°17.281 2°41.159 11.8 1.1 303.6 22.8
2002-08-13 10:42:06 51°17.288 2°41.137 14.8 0.9 286.9 22.8
2002-08-13 10:43:06 51°17.293 2°41.116 20.7 0.7 293.6 22.5
2002-08-13 10:44:06 51°17.297 2°41.104 35.3 0.3 298.4 22.6
2002-08-13 10:45:06 51°17.298 2°41.102 54.2 0.2 105.8 22.6
2002-08-13 10:46:06 51°17.291 2°41.112 70.8 0.7 137.6 22.7
2002-08-13 10:47:06 51°17.281 2°41.127 74.2 1 129.4 22.7
2002-08-13 10:48:06 51°17.27 2°41.15 76.5 1.1 126.7 22.8
2002-08-13 10:49:06 51°17.257 2°41.176 83.7 1.4 132.1 22.7
2002-08-13 10:50:06 51°17.241 2°41.205 94.8 1.6 143.3 22.9
2002-08-13 10:51:06 51°17.215 2°41.231 105.3 2 149 22.9
2002-08-13 10:52:06 51°17.183 2°41.257 109.3 2 154.2 22.9
2002-08-13 10:53:06 51°17.17 2°41.288 55.7 1 74 22.8
2002-08-13 10:54:06 51°17.19 2°41.281 357.3 2.1 318.3 22.9
2002-08-13 10:55:07 51°17.206 2°41.207 301.8 3.5 274.6 22.8
2002-08-13 10:56:06 51°17.188 2°41.106 248.7 4.4 240.1 22.9
2002-08-13 10:57:06 51°17.133 2°41.033 187.7 4.3 203.3 22.8
2002-08-13 10:58:06 51°17.034 2°41.034 163 7.8 173.6 22.6
2002-08-13 10:59:06 51°16.884 2°41.019 189.8 9.7 193.9 22.3
2002-08-13 11:00:06 51°16.727 2°40.93 197.2 10.1 200.7 22.1
2002-08-13 11:01:06 51°16.57 2°40.838 193.7 10.1 197.6 21.3
2002-08-13 11:02:06 51°16.408 2°40.757 193.7 10.1 197.1 20.5
2002-08-13 11:03:06 51°16.249 2°40.67 197.3 10.1 200.3 19.2
2002-08-13 11:04:06 51°16.09 2°40.578 197.7 10.2 199.9 18.6
2002-08-13 11:05:06 51°15.93 2°40.494 194.8 10.1 197.4 17.8
2002-08-13 11:06:06 51°15.768 2°40.434 185.8 10 190.1 16.7
2002-08-13 11:07:06 51°15.604 2°40.406 176.8 9.8 181.6 15.2
2002-08-13 11:08:06 51°15.444 2°40.441 161.8 9.6 167.6 13.5
2002-08-13 11:09:07 51°15.288 2°40.497 163.3 9.6 167.7 12.4
2002-08-13 11:10:06 51°15.137 2°40.55 163.5 9.4 167.7 11.6
2002-08-13 11:11:06 51°14.983 2°40.602 164.3 9.4 168.1 11.8
2002-08-13 11:12:06 51°14.83 2°40.654 164.8 9.3 168.7 11.6
2002-08-13 11:13:06 51°14.678 2°40.702 164.2 9.3 169.1 12.2
2002-08-13 11:14:06 51°14.525 2°40.748 164.7 9.3 169.6 12.8
2002-08-13 11:15:06 51°14.378 2°40.791 164.5 7.8 170.3 13.2
2002-08-13 11:16:06 51°14.272 2°40.812 166 5.6 174 14.2
2002-08-13 11:17:06 51°14.193 2°40.83 151.3 4.2 165.5 14.7
2002-08-13 11:18:06 51°14.144 2°40.871 121.2 3 144.4 13.8
2002-08-13 11:19:06 51°14.106 2°40.918 117.7 2.7 140.7 14.1
2002-08-13 11:20:06 51°14.087 2°40.959 78.5 1.4 107.3 14.2
2002-08-13 11:21:06 51°14.088 2°40.992 66.5 1.3 82.1 14.3
2002-08-13 11:22:06 51°14.089 2°41.031 71.8 1.6 88.3 14.4
2002-08-13 11:23:06 51°14.094 2°41.073 62.7 1.6 71.9 14.7
2002-08-13 11:24:06 51°14.099 2°41.095 50.7 0.3 213.7 14.8
2002-08-13 11:25:06 51°14.096 2°41.091 39.3 0.2 228.7 14.7
2002-08-13 11:26:06 51°14.094 2°41.085 32 0.3 267.4 14.9
2002-08-13 11:27:07 51°14.095 2°41.076 27.3 0.3 279.8 14.6
2002-08-13 11:28:07 51°14.098 2°41.069 28.3 0.4 303.5 14.6
2002-08-13 11:29:07 51°14.102 2°41.063 34.2 0.3 334.6 14.6
2002-08-13 11:30:06 51°14.105 2°41.063 46.7 0.2 32.7 14.7
2002-08-13 11:31:06 51°14.106 2°41.069 54.3 0.2 79 14.5
2002-08-13 11:32:07 51°14.109 2°41.071 35.7 0.3 354.4 14.8
2002-08-13 11:33:06 51°14.115 2°41.07 31.8 0.4 345.7 14.4
2002-08-13 11:34:06 51°14.123 2°41.067 28.3 0.6 349.4 14.6
2002-08-13 11:35:06 51°14.132 2°41.066 31.7 0.5 0.3 14.2
2002-08-13 11:36:06 51°14.14 2°41.068 37.5 0.5 14 14.6
2002-08-13 11:37:06 51°14.148 2°41.073 41.3 0.5 27.9 14.5
2002-08-13 11:38:06 51°14.154 2°41.081 48.3 0.5 46.9 14.2
2002-08-13 11:39:06 51°14.159 2°41.095 59.2 0.6 74.8 14.6
2002-08-13 11:40:06 51°14.156 2°41.114 81.2 0.9 121.9 14.5
2002-08-13 11:41:06 51°14.143 2°41.131 108 1.2 152 14.7
2002-08-13 11:42:07 51°14.133 2°41.103 113.8 2.5 270.4 23.5
2002-08-13 11:43:06 51°14.124 2°41.075 114.7 0.9 216.6 14.6
2002-08-13 11:44:06 51°14.107 2°41.076 119 1.4 160.9 15
2002-08-13 11:45:06 51°14.084 2°41.093 121.5 1.7 154.8 15
2002-08-13 11:46:06 51°14.061 2°41.115 100.2 1.3 142 15.4
2002-08-13 11:47:06 51°14.049 2°41.133 75.7 0.7 124.1 15.6
2002-08-13 11:48:06 51°14.045 2°41.146 61.5 0.5 100.9 15.7
2002-08-13 11:49:07 51°14.046 2°41.156 46.5 0.3 59 15.7
2002-08-13 11:50:07 51°14.051 2°41.16 37.8 0.3 18.6 15.7
2002-08-13 11:51:06 51°14.057 2°41.162 36.2 0.4 5.6 15.6
2002-08-13 11:52:06 51°14.062 2°41.167 53 0.4 64.3 15.6
2002-08-13 11:53:06 51°14.059 2°41.183 79.2 0.8 117.1 15.7
2002-08-13 11:54:06 51°14.045 2°41.205 104 1.4 142.5 15.9
2002-08-13 11:55:06 51°14.023 2°41.229 115 1.8 147.1 16
2002-08-13 11:56:07 51°13.995 2°41.256 124.8 2.1 152.8 16.3
2002-08-13 11:57:07 51°13.961 2°41.277 136.3 2.3 162.7 16.4
2002-08-13 11:58:06 51°13.921 2°41.29 149 2.6 172.5 16.7
2002-08-13 11:59:07 51°13.857 2°41.337 119 5.5 132.1 16.5
2002-08-13 12:00:06 51°13.879 2°41.524 67.8 10.8 68.5 16.6
2002-08-13 12:01:06 51°13.935 2°41.839 73.2 12.8 73.8 16.5
2002-08-13 12:02:07 51°13.994 2°42.171 74.8 12.8 74.9 16
2002-08-13 12:03:06 51°14.046 2°42.495 75.2 12.9 75.9 15.6
2002-08-13 12:04:07 51°14.098 2°42.833 75.5 12.9 76.5 15.5
2002-08-13 12:05:07 51°14.151 2°43.164 74.5 12.9 75.2 15.3
2002-08-13 12:06:07 51°14.203 2°43.494 75.3 12.9 76 14.8
2002-08-13 12:07:07 51°14.256 2°43.825 75.3 12.9 75.2 14
2002-08-13 12:08:06 51°14.308 2°44.152 75.8 12.9 76.1 12.9
2002-08-13 12:09:06 51°14.363 2°44.483 75.2 12.9 75 11.7
2002-08-13 12:10:06 51°14.416 2°44.817 76.5 13 76.7 10.4
2002-08-13 12:11:07 51°14.469 2°45.155 75.7 12.8 75 8.8
2002-08-13 12:12:07 51°14.521 2°45.482 75.7 12.6 75.2 7.9
2002-08-13 12:13:06 51°14.57 2°45.806 77.2 12.9 76.6 8.2
2002-08-13 12:14:07 51°14.619 2°46.152 77.2 13.4 76.5 9.6
2002-08-13 12:15:07 51°14.674 2°46.499 76.3 13.5 75.4 10.9
2002-08-13 12:16:07 51°14.726 2°46.845 77.3 13.4 76.6 12.4
2002-08-13 12:17:07 51°14.777 2°47.189 77.2 13.4 76.6 12.8
2002-08-13 12:18:06 51°14.828 2°47.525 77.2 13.2 76.5 12.9
2002-08-13 12:19:07 51°14.879 2°47.872 77.5 13.2 77 12.7
2002-08-13 12:20:07 51°14.929 2°48.213 77.2 13.2 76.4 12.8
2002-08-13 12:21:07 51°14.977 2°48.553 77.8 13.2 77.6 12.5
2002-08-13 12:22:07 51°15.026 2°48.895 77.5 13.2 77.3 12.6
2002-08-13 12:23:06 51°15.074 2°49.232 76.8 13.3 77.1 12.8
2002-08-13 12:24:06 51°15.123 2°49.574 78.7 13.3 78.4 12.9
2002-08-13 12:25:06 51°15.164 2°49.92 79.7 13.3 79.5 12.8
2002-08-13 12:26:06 51°15.197 2°50.267 81.3 12.8 81.4 12.8
2002-08-13 12:27:06 51°15.217 2°50.517 81.5 8 82.9 12.9
2002-08-13 12:28:07 51°15.233 2°50.729 81.8 9.7 82.3 12.8
2002-08-13 12:29:06 51°15.257 2°51.051 84.3 13.2 84.7 12.6
2002-08-13 12:30:07 51°15.273 2°51.409 87.8 13.4 88.3 12.3
2002-08-13 12:31:06 51°15.258 2°51.759 101.2 13.6 103.2 11.9
2002-08-13 12:32:06 51°15.186 2°52.1 106.8 13.6 108.8 11.5
2002-08-13 12:33:07 51°15.108 2°52.444 109 13.6 110.8 11
2002-08-13 12:34:06 51°15.023 2°52.77 112.2 13.3 115.3 10.5
2002-08-13 12:35:06 51°14.935 2°53.077 112 12.5 114.6 10.3
2002-08-13 12:36:07 51°14.846 2°53.381 113 12.4 115.4 10.1
2002-08-13 12:37:06 51°14.762 2°53.675 112.3 12.4 113.5 10.1
2002-08-13 12:38:07 51°14.677 2°53.982 112.8 12.4 113.2 10.4
2002-08-13 12:39:07 51°14.606 2°54.293 107.7 12.4 108 10.4
2002-08-13 12:40:06 51°14.529 2°54.594 109.3 12.4 109.9 10.1
2002-08-13 12:41:06 51°14.436 2°54.889 123 12.6 123.5 10.1
2002-08-13 12:42:06 51°14.319 2°55.156 129.5 11.3 127.6 10.4
2002-08-13 12:43:06 51°14.227 2°55.323 142.3 6.7 139.7 10.9
2002-08-13 12:44:06 51°14.147 2°55.402 153.5 5.2 151.4 10.7
2002-08-13 12:45:06 51°14.075 2°55.458 156.5 4.6 154.5 10.5
2002-08-13 12:46:06 51°14.002 2°55.51 158.8 5.1 156.3 10.5
2002-08-13 12:47:06 51°13.921 2°55.566 158.8 5.3 156.1 10.7
2002-08-13 12:48:06 51°13.845 2°55.617 158.5 4.5 157.4 10.6
2002-08-13 12:49:06 51°13.787 2°55.663 150.3 3.6 149.6 10.4
2002-08-13 12:50:06 51°13.744 2°55.718 138 3.3 136.4 10.3
2002-08-13 12:51:06 51°13.707 2°55.782 128.8 3.2 127.8 12.5
2002-08-13 12:52:06 51°13.682 2°55.852 119.2 2.9 115.1 10.6
2002-08-13 12:53:06 51°13.667 2°55.921 104.7 2.5 105.3 9.7
2002-08-13 12:54:06 51°13.662 2°55.952 122.5 0.1 5.6 8.2
2002-08-13 12:55:07 51°13.664 2°55.948 124.5 0.1 223.7 -999
2002-08-13 12:56:06 51°13.664 2°55.952 130.5 0.1 44.8 8
2002-08-13 12:57:06 51°13.664 2°55.955 130.5   45.4 8.1
2002-08-13 12:58:06 51°13.664 2°55.955 129.2   339 8.2
2002-08-13 12:59:06 51°13.664 2°55.955 129.3   284.2 8.1
2002-08-13 13:00:06 51°13.664 2°55.955 127.5   263 8.1
2002-08-13 13:01:08 51°13.664 2°55.955 127.8   300.1 8.1
2002-08-13 13:02:11 51°13.665 2°55.955 129   26.2 -999
2002-08-13 13:03:12 51°13.665 2°55.954     304.9 -999
2002-08-13 13:04:42 51°13.665 2°55.955     70.7 -999
2002-08-13 13:05:42 51°13.665 2°55.955 359.8   278.9 -999
2002-08-13 13:06:42 51°13.665 2°55.954     19.9 -999
2002-08-13 13:07:42 51°13.665 2°55.954     308 -999
2002-08-13 13:08:42 51°13.664 2°55.954     285.3 -999
2002-08-13 13:09:42 51°13.664 2°55.956 359.8   95 -999